sensor_id;sensor_type;location;lat;lon;timestamp;temperature;humidity
13231;DHT22;6681;53.254;10.398;2023-02-11T00:00:49;5.20;99.90
13231;DHT22;6681;53.254;10.398;2023-02-11T00:03:14;5.20;99.90
13231;DHT22;6681;53.254;10.398;2023-02-11T00:05:40;5.20;99.90
13231;DHT22;6681;53.254;10.398;2023-02-11T00:08:06;5.20;99.90
13231;DHT22;6681;53.254;10.398;2023-02-11T00:10:31;5.20;99.90
13231;DHT22;6681;53.254;10.398;2023-02-11T00:12:57;5.30;99.90
13231;DHT22;6681;53.254;10.398;2023-02-11T00:15:23;5.20;99.90
13231;DHT22;6681;53.254;10.398;2023-02-11T00:17:48;5.30;99.90
13231;DHT22;6681;53.254;10.398;2023-02-11T00:20:14;5.30;99.90
13231;DHT22;6681;53.254;10.398;2023-02-11T00:22:40;5.30;99.90
13231;DHT22;6681;53.254;10.398;2023-02-11T00:25:08;5.80;99.90
13231;DHT22;6681;53.254;10.398;2023-02-11T00:27:35;5.30;99.90
13231;DHT22;6681;53.254;10.398;2023-02-11T00:30:01;5.30;99.90
13231;DHT22;6681;53.254;10.398;2023-02-11T00:32:26;5.30;99.90
13231;DHT22;6681;53.254;10.398;2023-02-11T00:34:52;5.40;99.90
13231;DHT22;6681;53.254;10.398;2023-02-11T00:37:19;5.40;99.90
13231;DHT22;6681;53.254;10.398;2023-02-11T00:39:45;5.30;99.90
13231;DHT22;6681;53.254;10.398;2023-02-11T00:42:13;5.70;99.90
13231;DHT22;6681;53.254;10.398;2023-02-11T00:44:39;5.40;99.90
13231;DHT22;6681;53.254;10.398;2023-02-11T00:47:04;5.40;99.90
13231;DHT22;6681;53.254;10.398;2023-02-11T00:49:30;5.40;99.90
13231;DHT22;6681;53.254;10.398;2023-02-11T00:51:56;5.40;99.90
13231;DHT22;6681;53.254;10.398;2023-02-11T00:54:21;5.40;99.90
13231;DHT22;6681;53.254;10.398;2023-02-11T00:56:47;5.40;99.90
13231;DHT22;6681;53.254;10.398;2023-02-11T00:59:12;5.40;99.90
13231;DHT22;6681;53.254;10.398;2023-02-11T01:01:38;5.40;99.90
13231;DHT22;6681;53.254;10.398;2023-02-11T01:04:04;5.40;99.90
13231;DHT22;6681;53.254;10.398;2023-02-11T01:06:30;5.40;99.90
13231;DHT22;6681;53.254;10.398;2023-02-11T01:08:55;5.50;99.90
13231;DHT22;6681;53.254;10.398;2023-02-11T01:11:21;5.50;99.90
13231;DHT22;6681;53.254;10.398;2023-02-11T01:13:48;5.60;99.90
13231;DHT22;6681;53.254;10.398;2023-02-11T01:16:14;5.50;99.90
13231;DHT22;6681;53.254;10.398;2023-02-11T01:18:40;5.50;99.90
13231;DHT22;6681;53.254;10.398;2023-02-11T01:21:08;5.50;99.90
13231;DHT22;6681;53.254;10.398;2023-02-11T01:23:34;5.50;99.90
13231;DHT22;6681;53.254;10.398;2023-02-11T01:26:00;5.50;99.90
13231;DHT22;6681;53.254;10.398;2023-02-11T01:28:28;5.50;99.90
13231;DHT22;6681;53.254;10.398;2023-02-11T01:30:54;5.50;99.90
13231;DHT22;6681;53.254;10.398;2023-02-11T01:33:21;5.50;99.90
13231;DHT22;6681;53.254;10.398;2023-02-11T01:35:47;5.50;99.90
13231;DHT22;6681;53.254;10.398;2023-02-11T01:38:21;5.50;99.90
13231;DHT22;6681;53.254;10.398;2023-02-11T01:40:53;5.50;99.90
13231;DHT22;6681;53.254;10.398;2023-02-11T01:43:20;5.50;99.90
13231;DHT22;6681;53.254;10.398;2023-02-11T01:48:24;5.50;99.90
13231;DHT22;6681;53.254;10.398;2023-02-11T01:50:58;5.50;99.90
13231;DHT22;6681;53.254;10.398;2023-02-11T01:53:25;5.50;99.90
13231;DHT22;6681;53.254;10.398;2023-02-11T01:56:10;5.50;99.90
13231;DHT22;6681;53.254;10.398;2023-02-11T01:58:59;5.50;99.90
13231;DHT22;6681;53.254;10.398;2023-02-11T02:01:29;5.50;99.90
13231;DHT22;6681;53.254;10.398;2023-02-11T02:04:00;5.50;99.90
13231;DHT22;6681;53.254;10.398;2023-02-11T02:09:30;5.50;99.90
13231;DHT22;6681;53.254;10.398;2023-02-11T02:11:57;5.50;99.90
13231;DHT22;6681;53.254;10.398;2023-02-11T02:14:23;5.60;99.90
13231;DHT22;6681;53.254;10.398;2023-02-11T02:16:49;5.50;99.90
13231;DHT22;6681;53.254;10.398;2023-02-11T02:19:23;5.50;99.90
13231;DHT22;6681;53.254;10.398;2023-02-11T02:38:11;5.50;99.90
13231;DHT22;6681;53.254;10.398;2023-02-11T02:40:57;5.60;99.90
13231;DHT22;6681;53.254;10.398;2023-02-11T02:43:26;5.60;99.90
13231;DHT22;6681;53.254;10.398;2023-02-11T02:45:52;5.60;99.90
13231;DHT22;6681;53.254;10.398;2023-02-11T02:48:25;6.10;99.90
13231;DHT22;6681;53.254;10.398;2023-02-11T02:53:48;5.60;99.90
13231;DHT22;6681;53.254;10.398;2023-02-11T02:56:53;5.60;99.90
13231;DHT22;6681;53.254;10.398;2023-02-11T02:59:30;5.60;99.90
13231;DHT22;6681;53.254;10.398;2023-02-11T03:05:13;5.60;99.90
13231;DHT22;6681;53.254;10.398;2023-02-11T03:08:02;5.60;99.90
13231;DHT22;6681;53.254;10.398;2023-02-11T03:10:48;5.60;99.90
13231;DHT22;6681;53.254;10.398;2023-02-11T03:13:16;5.60;99.90
13231;DHT22;6681;53.254;10.398;2023-02-11T03:15:46;5.80;99.90
13231;DHT22;6681;53.254;10.398;2023-02-11T03:18:17;5.70;99.90
13231;DHT22;6681;53.254;10.398;2023-02-11T03:20:44;5.60;99.90
13231;DHT22;6681;53.254;10.398;2023-02-11T03:23:23;5.60;99.90
13231;DHT22;6681;53.254;10.398;2023-02-11T03:26:03;5.60;99.90
13231;DHT22;6681;53.254;10.398;2023-02-11T03:31:21;5.60;99.90
13231;DHT22;6681;53.254;10.398;2023-02-11T03:34:08;5.60;99.90
13231;DHT22;6681;53.254;10.398;2023-02-11T03:36:45;5.70;99.90
13231;DHT22;6681;53.254;10.398;2023-02-11T03:39:34;5.70;99.90
13231;DHT22;6681;53.254;10.398;2023-02-11T03:42:02;5.60;99.90
13231;DHT22;6681;53.254;10.398;2023-02-11T03:44:32;5.70;99.90
13231;DHT22;6681;53.254;10.398;2023-02-11T03:47:00;5.60;99.90
13231;DHT22;6681;53.254;10.398;2023-02-11T03:49:27;5.70;99.90
13231;DHT22;6681;53.254;10.398;2023-02-11T03:51:55;5.70;99.90
13231;DHT22;6681;53.254;10.398;2023-02-11T03:54:28;5.80;99.90
13231;DHT22;6681;53.254;10.398;2023-02-11T03:56:57;5.70;99.90
13231;DHT22;6681;53.254;10.398;2023-02-11T03:59:23;5.70;99.90
13231;DHT22;6681;53.254;10.398;2023-02-11T04:01:49;5.70;99.90
13231;DHT22;6681;53.254;10.398;2023-02-11T04:04:16;5.70;99.90
13231;DHT22;6681;53.254;10.398;2023-02-11T04:06:41;5.70;99.90
13231;DHT22;6681;53.254;10.398;2023-02-11T04:09:08;5.70;99.90
13231;DHT22;6681;53.254;10.398;2023-02-11T04:11:33;5.80;99.90
13231;DHT22;6681;53.254;10.398;2023-02-11T04:13:59;5.80;99.90
13231;DHT22;6681;53.254;10.398;2023-02-11T04:16:25;5.80;99.90
13231;DHT22;6681;53.254;10.398;2023-02-11T04:18:50;6.50;99.90
13231;DHT22;6681;53.254;10.398;2023-02-11T04:21:20;5.80;99.90
13231;DHT22;6681;53.254;10.398;2023-02-11T04:23:45;5.90;99.90
13231;DHT22;6681;53.254;10.398;2023-02-11T04:26:11;5.90;99.90
13231;DHT22;6681;53.254;10.398;2023-02-11T04:28:37;5.90;99.90
13231;DHT22;6681;53.254;10.398;2023-02-11T04:31:02;6.00;99.90
13231;DHT22;6681;53.254;10.398;2023-02-11T04:33:28;6.00;99.90
13231;DHT22;6681;53.254;10.398;2023-02-11T04:35:53;6.20;99.90
13231;DHT22;6681;53.254;10.398;2023-02-11T04:38:19;6.00;99.90
13231;DHT22;6681;53.254;10.398;2023-02-11T04:40:45;6.00;99.90
13231;DHT22;6681;53.254;10.398;2023-02-11T04:43:11;6.30;99.90
13231;DHT22;6681;53.254;10.398;2023-02-11T04:45:36;6.00;99.90
13231;DHT22;6681;53.254;10.398;2023-02-11T04:48:02;6.00;99.90
13231;DHT22;6681;53.254;10.398;2023-02-11T04:50:28;6.10;99.90
13231;DHT22;6681;53.254;10.398;2023-02-11T04:52:54;6.10;99.90
13231;DHT22;6681;53.254;10.398;2023-02-11T04:55:19;6.10;99.90
13231;DHT22;6681;53.254;10.398;2023-02-11T04:57:45;6.10;99.90
13231;DHT22;6681;53.254;10.398;2023-02-11T05:00:11;6.60;99.90
13231;DHT22;6681;53.254;10.398;2023-02-11T05:02:37;6.10;99.90
13231;DHT22;6681;53.254;10.398;2023-02-11T05:05:03;6.10;99.90
13231;DHT22;6681;53.254;10.398;2023-02-11T05:07:29;6.10;99.90
13231;DHT22;6681;53.254;10.398;2023-02-11T05:09:55;6.10;99.90
13231;DHT22;6681;53.254;10.398;2023-02-11T05:12:20;6.20;99.90
13231;DHT22;6681;53.254;10.398;2023-02-11T05:14:46;6.20;99.90
13231;DHT22;6681;53.254;10.398;2023-02-11T05:17:12;6.20;99.90
13231;DHT22;6681;53.254;10.398;2023-02-11T05:19:37;6.20;99.90
13231;DHT22;6681;53.254;10.398;2023-02-11T05:22:03;6.20;99.90
13231;DHT22;6681;53.254;10.398;2023-02-11T05:24:31;6.20;99.90
13231;DHT22;6681;53.254;10.398;2023-02-11T05:26:56;6.20;99.90
13231;DHT22;6681;53.254;10.398;2023-02-11T05:29:22;6.20;99.90
13231;DHT22;6681;53.254;10.398;2023-02-11T05:31:47;6.30;99.90
13231;DHT22;6681;53.254;10.398;2023-02-11T05:34:13;6.30;99.90
13231;DHT22;6681;53.254;10.398;2023-02-11T05:36:39;6.30;99.90
13231;DHT22;6681;53.254;10.398;2023-02-11T05:39:05;6.40;99.90
13231;DHT22;6681;53.254;10.398;2023-02-11T05:41:31;6.50;99.90
13231;DHT22;6681;53.254;10.398;2023-02-11T05:43:56;6.30;99.90
13231;DHT22;6681;53.254;10.398;2023-02-11T05:46:22;6.20;99.90
13231;DHT22;6681;53.254;10.398;2023-02-11T05:48:47;6.30;99.90
13231;DHT22;6681;53.254;10.398;2023-02-11T05:51:16;6.30;99.90
13231;DHT22;6681;53.254;10.398;2023-02-11T05:53:41;6.40;99.90
13231;DHT22;6681;53.254;10.398;2023-02-11T05:56:13;6.40;99.90
13231;DHT22;6681;53.254;10.398;2023-02-11T05:58:39;6.40;99.90
13231;DHT22;6681;53.254;10.398;2023-02-11T06:01:05;6.40;99.90
13231;DHT22;6681;53.254;10.398;2023-02-11T06:03:31;6.40;99.90
13231;DHT22;6681;53.254;10.398;2023-02-11T06:05:56;6.40;99.90
13231;DHT22;6681;53.254;10.398;2023-02-11T06:08:22;6.40;99.90
13231;DHT22;6681;53.254;10.398;2023-02-11T06:10:47;6.40;99.90
13231;DHT22;6681;53.254;10.398;2023-02-11T06:13:13;6.50;99.90
13231;DHT22;6681;53.254;10.398;2023-02-11T06:15:39;6.40;99.90
13231;DHT22;6681;53.254;10.398;2023-02-11T06:18:04;6.50;99.90
13231;DHT22;6681;53.254;10.398;2023-02-11T06:20:30;6.40;99.90
13231;DHT22;6681;53.254;10.398;2023-02-11T06:22:56;6.40;99.90
13231;DHT22;6681;53.254;10.398;2023-02-11T06:25:21;6.50;99.90
13231;DHT22;6681;53.254;10.398;2023-02-11T06:27:47;6.50;99.90
13231;DHT22;6681;53.254;10.398;2023-02-11T06:30:13;6.50;99.90
13231;DHT22;6681;53.254;10.398;2023-02-11T06:32:39;6.50;99.90
13231;DHT22;6681;53.254;10.398;2023-02-11T06:35:04;6.50;99.90
13231;DHT22;6681;53.254;10.398;2023-02-11T06:37:30;6.50;99.90
13231;DHT22;6681;53.254;10.398;2023-02-11T06:39:56;6.50;99.90
13231;DHT22;6681;53.254;10.398;2023-02-11T06:42:21;6.50;99.90
13231;DHT22;6681;53.254;10.398;2023-02-11T06:44:47;6.60;99.90
13231;DHT22;6681;53.254;10.398;2023-02-11T06:47:12;6.60;99.90
13231;DHT22;6681;53.254;10.398;2023-02-11T06:49:38;6.60;99.90
13231;DHT22;6681;53.254;10.398;2023-02-11T06:52:04;6.60;99.90
13231;DHT22;6681;53.254;10.398;2023-02-11T06:54:30;6.60;99.90
13231;DHT22;6681;53.254;10.398;2023-02-11T06:56:59;6.60;99.90
13231;DHT22;6681;53.254;10.398;2023-02-11T06:59:24;6.60;99.90
13231;DHT22;6681;53.254;10.398;2023-02-11T07:01:50;6.70;99.90
13231;DHT22;6681;53.254;10.398;2023-02-11T07:04:15;6.70;99.90
13231;DHT22;6681;53.254;10.398;2023-02-11T07:06:41;7.00;99.90
13231;DHT22;6681;53.254;10.398;2023-02-11T07:09:07;6.70;99.90
13231;DHT22;6681;53.254;10.398;2023-02-11T07:11:33;6.70;99.90
13231;DHT22;6681;53.254;10.398;2023-02-11T07:14:02;6.70;99.90
13231;DHT22;6681;53.254;10.398;2023-02-11T07:16:28;6.70;99.90
13231;DHT22;6681;53.254;10.398;2023-02-11T07:18:53;6.70;99.90
13231;DHT22;6681;53.254;10.398;2023-02-11T07:21:20;6.80;99.90
13231;DHT22;6681;53.254;10.398;2023-02-11T07:23:47;6.80;99.90
13231;DHT22;6681;53.254;10.398;2023-02-11T07:26:18;7.10;99.90
13231;DHT22;6681;53.254;10.398;2023-02-11T07:28:44;6.80;99.90
13231;DHT22;6681;53.254;10.398;2023-02-11T07:31:12;6.80;99.90
13231;DHT22;6681;53.254;10.398;2023-02-11T07:33:38;6.80;99.90
13231;DHT22;6681;53.254;10.398;2023-02-11T07:36:06;6.80;99.90
13231;DHT22;6681;53.254;10.398;2023-02-11T07:38:35;6.80;99.90
13231;DHT22;6681;53.254;10.398;2023-02-11T07:41:03;6.90;99.90
13231;DHT22;6681;53.254;10.398;2023-02-11T07:43:30;6.90;99.90
13231;DHT22;6681;53.254;10.398;2023-02-11T07:45:56;6.80;99.90
13231;DHT22;6681;53.254;10.398;2023-02-11T07:48:22;6.90;99.90
13231;DHT22;6681;53.254;10.398;2023-02-11T07:50:47;6.90;99.90
13231;DHT22;6681;53.254;10.398;2023-02-11T07:53:13;6.90;99.90
13231;DHT22;6681;53.254;10.398;2023-02-11T07:55:39;6.90;99.90
13231;DHT22;6681;53.254;10.398;2023-02-11T07:58:04;6.90;99.90
13231;DHT22;6681;53.254;10.398;2023-02-11T08:00:30;6.90;99.90
13231;DHT22;6681;53.254;10.398;2023-02-11T08:02:56;6.90;99.90
13231;DHT22;6681;53.254;10.398;2023-02-11T08:05:22;6.90;99.90
13231;DHT22;6681;53.254;10.398;2023-02-11T08:07:52;6.90;99.90
13231;DHT22;6681;53.254;10.398;2023-02-11T08:10:18;6.90;99.90
13231;DHT22;6681;53.254;10.398;2023-02-11T08:12:44;6.90;99.90
13231;DHT22;6681;53.254;10.398;2023-02-11T08:15:09;7.00;99.90
13231;DHT22;6681;53.254;10.398;2023-02-11T08:17:36;7.20;99.90
13231;DHT22;6681;53.254;10.398;2023-02-11T08:20:03;7.00;99.90
13231;DHT22;6681;53.254;10.398;2023-02-11T08:22:31;7.00;99.90
13231;DHT22;6681;53.254;10.398;2023-02-11T08:24:56;7.00;99.90
13231;DHT22;6681;53.254;10.398;2023-02-11T08:27:23;7.00;99.90
13231;DHT22;6681;53.254;10.398;2023-02-11T08:29:48;7.00;99.90
13231;DHT22;6681;53.254;10.398;2023-02-11T08:32:17;7.00;99.90
13231;DHT22;6681;53.254;10.398;2023-02-11T08:34:43;7.00;99.90
13231;DHT22;6681;53.254;10.398;2023-02-11T08:37:08;7.00;99.90
13231;DHT22;6681;53.254;10.398;2023-02-11T08:39:34;7.00;99.90
13231;DHT22;6681;53.254;10.398;2023-02-11T08:42:00;7.00;99.90
13231;DHT22;6681;53.254;10.398;2023-02-11T08:44:25;7.00;99.90
13231;DHT22;6681;53.254;10.398;2023-02-11T08:46:51;7.10;99.90
13231;DHT22;6681;53.254;10.398;2023-02-11T08:49:17;7.10;99.90
13231;DHT22;6681;53.254;10.398;2023-02-11T08:51:44;7.10;99.90
13231;DHT22;6681;53.254;10.398;2023-02-11T08:54:10;7.20;99.90
13231;DHT22;6681;53.254;10.398;2023-02-11T08:56:36;7.20;99.90
13231;DHT22;6681;53.254;10.398;2023-02-11T08:59:02;7.20;99.90
13231;DHT22;6681;53.254;10.398;2023-02-11T09:01:29;7.20;99.90
13231;DHT22;6681;53.254;10.398;2023-02-11T09:03:56;7.20;99.90
13231;DHT22;6681;53.254;10.398;2023-02-11T09:06:23;7.30;99.90
13231;DHT22;6681;53.254;10.398;2023-02-11T09:08:51;7.30;99.90
13231;DHT22;6681;53.254;10.398;2023-02-11T09:11:19;7.30;99.90
13231;DHT22;6681;53.254;10.398;2023-02-11T09:13:45;7.30;99.90
13231;DHT22;6681;53.254;10.398;2023-02-11T09:16:19;7.30;99.90
13231;DHT22;6681;53.254;10.398;2023-02-11T09:18:45;7.30;99.90
13231;DHT22;6681;53.254;10.398;2023-02-11T09:21:12;7.40;99.90
13231;DHT22;6681;53.254;10.398;2023-02-11T09:23:38;7.40;99.90
13231;DHT22;6681;53.254;10.398;2023-02-11T09:26:07;7.40;99.90
13231;DHT22;6681;53.254;10.398;2023-02-11T09:28:33;7.40;99.90
13231;DHT22;6681;53.254;10.398;2023-02-11T09:31:04;7.40;99.90
13231;DHT22;6681;53.254;10.398;2023-02-11T09:33:30;7.40;99.90
13231;DHT22;6681;53.254;10.398;2023-02-11T09:35:55;7.40;99.90
13231;DHT22;6681;53.254;10.398;2023-02-11T09:38:24;7.40;99.90
13231;DHT22;6681;53.254;10.398;2023-02-11T09:40:49;7.40;99.90
13231;DHT22;6681;53.254;10.398;2023-02-11T09:43:19;7.40;99.90
13231;DHT22;6681;53.254;10.398;2023-02-11T09:45:45;7.50;99.90
13231;DHT22;6681;53.254;10.398;2023-02-11T09:48:16;7.50;99.90
13231;DHT22;6681;53.254;10.398;2023-02-11T09:50:48;7.70;99.90
13231;DHT22;6681;53.254;10.398;2023-02-11T09:53:24;7.50;99.90
13231;DHT22;6681;53.254;10.398;2023-02-11T09:55:53;7.50;99.90
13231;DHT22;6681;53.254;10.398;2023-02-11T09:58:25;7.60;99.90
13231;DHT22;6681;53.254;10.398;2023-02-11T10:03:44;7.60;99.90
13231;DHT22;6681;53.254;10.398;2023-02-11T10:20:41;7.70;99.90
13231;DHT22;6681;53.254;10.398;2023-02-11T10:23:31;7.70;99.90
13231;DHT22;6681;53.254;10.398;2023-02-11T10:25:59;7.70;99.90
13231;DHT22;6681;53.254;10.398;2023-02-11T10:28:31;7.70;99.90
13231;DHT22;6681;53.254;10.398;2023-02-11T10:36:00;7.70;99.90
13231;DHT22;6681;53.254;10.398;2023-02-11T10:38:45;7.80;99.90
13231;DHT22;6681;53.254;10.398;2023-02-11T10:41:21;7.70;99.90
13231;DHT22;6681;53.254;10.398;2023-02-11T10:43:50;7.80;99.90
13231;DHT22;6681;53.254;10.398;2023-02-11T10:46:23;7.90;99.90
13231;DHT22;6681;53.254;10.398;2023-02-11T10:48:52;7.80;99.90
13231;DHT22;6681;53.254;10.398;2023-02-11T10:51:25;7.80;99.90
13231;DHT22;6681;53.254;10.398;2023-02-11T10:56:31;7.80;99.90
13231;DHT22;6681;53.254;10.398;2023-02-11T10:59:04;7.80;99.90
13231;DHT22;6681;53.254;10.398;2023-02-11T11:01:40;7.80;99.90
13231;DHT22;6681;53.254;10.398;2023-02-11T11:06:54;7.90;99.90
13231;DHT22;6681;53.254;10.398;2023-02-11T11:09:27;7.90;99.90
13231;DHT22;6681;53.254;10.398;2023-02-11T11:11:56;7.80;99.90
13231;DHT22;6681;53.254;10.398;2023-02-11T11:14:23;7.90;99.90
13231;DHT22;6681;53.254;10.398;2023-02-11T11:16:53;7.90;99.90
13231;DHT22;6681;53.254;10.398;2023-02-11T11:19:24;7.90;99.90
13231;DHT22;6681;53.254;10.398;2023-02-11T11:21:51;7.90;99.90
13231;DHT22;6681;53.254;10.398;2023-02-11T11:24:33;7.90;99.90
13231;DHT22;6681;53.254;10.398;2023-02-11T11:27:04;7.90;99.90
13231;DHT22;6681;53.254;10.398;2023-02-11T11:29:35;7.90;99.90
13231;DHT22;6681;53.254;10.398;2023-02-11T11:32:10;7.90;99.90
13231;DHT22;6681;53.254;10.398;2023-02-11T11:34:40;7.90;99.90
13231;DHT22;6681;53.254;10.398;2023-02-11T11:37:12;7.90;99.90
13231;DHT22;6681;53.254;10.398;2023-02-11T11:39:38;8.00;99.90
13231;DHT22;6681;53.254;10.398;2023-02-11T11:42:25;7.90;99.90
13231;DHT22;6681;53.254;10.398;2023-02-11T11:44:59;7.90;99.90
13231;DHT22;6681;53.254;10.398;2023-02-11T11:53:15;8.10;99.90
13231;DHT22;6681;53.254;10.398;2023-02-11T11:55:59;8.00;99.90
13231;DHT22;6681;53.254;10.398;2023-02-11T11:58:28;8.00;99.90
13231;DHT22;6681;53.254;10.398;2023-02-11T12:01:09;8.00;99.90
13231;DHT22;6681;53.254;10.398;2023-02-11T12:06:51;8.00;99.90
13231;DHT22;6681;53.254;10.398;2023-02-11T12:18:19;8.00;99.90
13231;DHT22;6681;53.254;10.398;2023-02-11T12:21:16;8.00;99.90
13231;DHT22;6681;53.254;10.398;2023-02-11T12:29:23;8.00;99.90
13231;DHT22;6681;53.254;10.398;2023-02-11T12:37:32;8.00;99.90
13231;DHT22;6681;53.254;10.398;2023-02-11T12:56:44;7.90;99.90
13231;DHT22;6681;53.254;10.398;2023-02-11T13:01:56;8.00;99.90
13231;DHT22;6681;53.254;10.398;2023-02-11T13:04:39;8.00;99.90
13231;DHT22;6681;53.254;10.398;2023-02-11T13:07:35;8.00;99.90
13231;DHT22;6681;53.254;10.398;2023-02-11T13:12:45;8.00;99.90
13231;DHT22;6681;53.254;10.398;2023-02-11T13:15:30;8.00;99.90
13231;DHT22;6681;53.254;10.398;2023-02-11T13:26:11;8.10;99.90
13231;DHT22;6681;53.254;10.398;2023-02-11T13:28:44;8.20;99.90
13231;DHT22;6681;53.254;10.398;2023-02-11T13:31:11;8.10;99.90
13231;DHT22;6681;53.254;10.398;2023-02-11T13:33:39;8.10;99.90
13231;DHT22;6681;53.254;10.398;2023-02-11T13:36:09;8.20;99.90
13231;DHT22;6681;53.254;10.398;2023-02-11T13:38:36;8.20;99.90
13231;DHT22;6681;53.254;10.398;2023-02-11T13:41:15;8.10;99.90
13231;DHT22;6681;53.254;10.398;2023-02-11T13:43:42;8.20;99.90
13231;DHT22;6681;53.254;10.398;2023-02-11T13:46:12;8.20;99.90
13231;DHT22;6681;53.254;10.398;2023-02-11T13:48:45;8.20;99.90
13231;DHT22;6681;53.254;10.398;2023-02-11T13:51:16;8.30;99.90
13231;DHT22;6681;53.254;10.398;2023-02-11T13:53:53;8.30;99.90
13231;DHT22;6681;53.254;10.398;2023-02-11T13:56:31;8.30;99.90
13231;DHT22;6681;53.254;10.398;2023-02-11T13:59:00;8.30;99.90
13231;DHT22;6681;53.254;10.398;2023-02-11T14:04:36;8.30;99.90
13231;DHT22;6681;53.254;10.398;2023-02-11T14:07:31;8.30;99.90
13231;DHT22;6681;53.254;10.398;2023-02-11T14:34:52;8.30;99.90
13231;DHT22;6681;53.254;10.398;2023-02-11T14:37:47;8.40;99.90
13231;DHT22;6681;53.254;10.398;2023-02-11T14:40:23;8.40;99.90
13231;DHT22;6681;53.254;10.398;2023-02-11T14:42:53;8.40;99.90
13231;DHT22;6681;53.254;10.398;2023-02-11T14:45:24;8.40;99.90
13231;DHT22;6681;53.254;10.398;2023-02-11T14:48:05;8.40;99.90
13231;DHT22;6681;53.254;10.398;2023-02-11T14:50:42;8.40;99.90
13231;DHT22;6681;53.254;10.398;2023-02-11T14:53:14;8.40;99.90
13231;DHT22;6681;53.254;10.398;2023-02-11T14:55:42;8.40;99.90
13231;DHT22;6681;53.254;10.398;2023-02-11T15:01:03;8.40;99.90
13231;DHT22;6681;53.254;10.398;2023-02-11T15:03:38;8.40;99.90
13231;DHT22;6681;53.254;10.398;2023-02-11T15:08:34;8.40;99.90
13231;DHT22;6681;53.254;10.398;2023-02-11T15:11:02;8.40;99.90
13231;DHT22;6681;53.254;10.398;2023-02-11T15:13:32;8.40;99.90
13231;DHT22;6681;53.254;10.398;2023-02-11T15:16:07;8.40;99.90
13231;DHT22;6681;53.254;10.398;2023-02-11T15:18:38;8.40;99.90
13231;DHT22;6681;53.254;10.398;2023-02-11T15:21:05;8.30;99.90
13231;DHT22;6681;53.254;10.398;2023-02-11T15:23:31;8.30;99.90
13231;DHT22;6681;53.254;10.398;2023-02-11T15:25:57;8.30;99.90
13231;DHT22;6681;53.254;10.398;2023-02-11T15:28:33;8.30;99.90
13231;DHT22;6681;53.254;10.398;2023-02-11T15:31:03;8.30;99.90
13231;DHT22;6681;53.254;10.398;2023-02-11T15:33:29;8.30;99.90
13231;DHT22;6681;53.254;10.398;2023-02-11T15:35:57;8.30;99.90
13231;DHT22;6681;53.254;10.398;2023-02-11T15:38:23;8.30;99.90
13231;DHT22;6681;53.254;10.398;2023-02-11T15:41:00;8.30;99.90
13231;DHT22;6681;53.254;10.398;2023-02-11T15:43:44;8.30;99.90
13231;DHT22;6681;53.254;10.398;2023-02-11T15:46:13;8.30;99.90
13231;DHT22;6681;53.254;10.398;2023-02-11T15:48:44;8.30;99.90
13231;DHT22;6681;53.254;10.398;2023-02-11T15:51:23;8.30;99.90
13231;DHT22;6681;53.254;10.398;2023-02-11T15:54:05;8.30;99.90
13231;DHT22;6681;53.254;10.398;2023-02-11T15:56:40;8.30;99.90
13231;DHT22;6681;53.254;10.398;2023-02-11T15:59:27;8.30;99.90
13231;DHT22;6681;53.254;10.398;2023-02-11T16:01:57;8.30;99.90
13231;DHT22;6681;53.254;10.398;2023-02-11T16:04:29;8.30;99.90
13231;DHT22;6681;53.254;10.398;2023-02-11T16:06:55;8.30;99.90
13231;DHT22;6681;53.254;10.398;2023-02-11T16:09:25;8.30;99.90
13231;DHT22;6681;53.254;10.398;2023-02-11T16:11:56;8.30;99.90
13231;DHT22;6681;53.254;10.398;2023-02-11T16:14:30;8.30;99.90
13231;DHT22;6681;53.254;10.398;2023-02-11T16:17:04;8.40;99.90
13231;DHT22;6681;53.254;10.398;2023-02-11T16:19:33;8.30;99.90
13231;DHT22;6681;53.254;10.398;2023-02-11T16:22:04;8.20;99.90
13231;DHT22;6681;53.254;10.398;2023-02-11T16:24:35;8.30;99.90
13231;DHT22;6681;53.254;10.398;2023-02-11T16:27:05;8.30;99.90
13231;DHT22;6681;53.254;10.398;2023-02-11T16:29:35;8.30;99.90
13231;DHT22;6681;53.254;10.398;2023-02-11T16:32:21;8.30;99.90
13231;DHT22;6681;53.254;10.398;2023-02-11T16:34:47;8.30;99.90
13231;DHT22;6681;53.254;10.398;2023-02-11T16:37:12;8.30;99.90
13231;DHT22;6681;53.254;10.398;2023-02-11T16:39:38;8.30;99.90
13231;DHT22;6681;53.254;10.398;2023-02-11T16:42:04;8.30;99.90
13231;DHT22;6681;53.254;10.398;2023-02-11T16:44:32;8.30;99.90
13231;DHT22;6681;53.254;10.398;2023-02-11T16:46:59;8.30;99.90
13231;DHT22;6681;53.254;10.398;2023-02-11T16:49:28;8.20;99.90
13231;DHT22;6681;53.254;10.398;2023-02-11T16:51:57;8.20;99.90
13231;DHT22;6681;53.254;10.398;2023-02-11T16:54:25;8.20;99.90
13231;DHT22;6681;53.254;10.398;2023-02-11T16:56:51;8.20;99.90
13231;DHT22;6681;53.254;10.398;2023-02-11T16:59:17;8.20;99.90
13231;DHT22;6681;53.254;10.398;2023-02-11T17:01:44;8.20;99.90
13231;DHT22;6681;53.254;10.398;2023-02-11T17:04:24;8.20;99.90
13231;DHT22;6681;53.254;10.398;2023-02-11T17:06:51;8.20;99.90
13231;DHT22;6681;53.254;10.398;2023-02-11T17:09:19;8.20;99.90
13231;DHT22;6681;53.254;10.398;2023-02-11T17:11:46;8.20;99.90
13231;DHT22;6681;53.254;10.398;2023-02-11T17:14:11;8.20;99.90
13231;DHT22;6681;53.254;10.398;2023-02-11T17:16:37;8.20;99.90
13231;DHT22;6681;53.254;10.398;2023-02-11T17:19:02;8.30;99.90
13231;DHT22;6681;53.254;10.398;2023-02-11T17:21:28;8.20;99.90
13231;DHT22;6681;53.254;10.398;2023-02-11T17:23:56;8.20;99.90
13231;DHT22;6681;53.254;10.398;2023-02-11T17:26:22;8.20;99.90
13231;DHT22;6681;53.254;10.398;2023-02-11T17:28:47;8.20;99.90
13231;DHT22;6681;53.254;10.398;2023-02-11T17:31:13;8.20;99.90
13231;DHT22;6681;53.254;10.398;2023-02-11T17:33:39;8.20;99.90
13231;DHT22;6681;53.254;10.398;2023-02-11T17:36:08;8.20;99.90
13231;DHT22;6681;53.254;10.398;2023-02-11T17:38:35;8.20;99.90
13231;DHT22;6681;53.254;10.398;2023-02-11T17:41:02;8.20;99.90
13231;DHT22;6681;53.254;10.398;2023-02-11T17:43:29;8.10;99.90
13231;DHT22;6681;53.254;10.398;2023-02-11T17:45:56;8.20;99.90
13231;DHT22;6681;53.254;10.398;2023-02-11T17:48:23;8.20;99.90
13231;DHT22;6681;53.254;10.398;2023-02-11T17:50:49;8.20;99.90
13231;DHT22;6681;53.254;10.398;2023-02-11T17:53:15;8.20;99.90
13231;DHT22;6681;53.254;10.398;2023-02-11T17:55:40;8.20;99.90
13231;DHT22;6681;53.254;10.398;2023-02-11T17:58:06;8.20;99.90
13231;DHT22;6681;53.254;10.398;2023-02-11T18:00:32;8.10;99.90
13231;DHT22;6681;53.254;10.398;2023-02-11T18:02:58;8.10;99.90
13231;DHT22;6681;53.254;10.398;2023-02-11T18:05:35;8.10;99.90
13231;DHT22;6681;53.254;10.398;2023-02-11T18:08:05;8.00;99.90
13231;DHT22;6681;53.254;10.398;2023-02-11T18:10:31;8.00;99.90
13231;DHT22;6681;53.254;10.398;2023-02-11T18:12:59;8.10;99.90
13231;DHT22;6681;53.254;10.398;2023-02-11T18:15:25;8.10;99.90
13231;DHT22;6681;53.254;10.398;2023-02-11T18:17:50;8.10;99.90
13231;DHT22;6681;53.254;10.398;2023-02-11T18:20:16;8.10;99.90
13231;DHT22;6681;53.254;10.398;2023-02-11T18:22:42;8.10;99.90
13231;DHT22;6681;53.254;10.398;2023-02-11T18:25:12;8.10;99.90
13231;DHT22;6681;53.254;10.398;2023-02-11T18:27:39;8.10;99.90